Terminal Aerodrome Forecast
Issued by NWS

Home | Current Version | Previous Version | Text Only | Print | Product List | Glossary On
Versions: 1 2 3 4 5 6 7 8 9 10 11 12 13 14
000
FTUS43 KDDC 201100 AAA
TAFHYS
TAF AMD
KHYS 201143Z 2012/2112 18012KT P6SM BKN200
     FM201500 20015G23KT P6SM VCSH BKN080
      TEMPO 2018/2022 TSRA OVC040CB
     FM210600 33008KT P6SM OVC040=

USA.gov is the U.S. government's official web portal to all federal, state and local government web resources and services.